Time;durP1;ratioP1;P1;durP2;ratioP2;P2;SDS_P1;SDS_P2;PMS_P1;PMS_P2;Temp;Humidity;BMP_temperature;BMP_pressure;BME280_temperature;BME280_humidity;BME280_pressure;Samples;Min_cycle;Max_cycle;Signal;HPM_P1;HPM_P2
2022/01/05 00:01:08;;;;;;;;;;;3.30;99.90;;;;;;5045529;28;19964;-70
2022/01/05 00:03:35;;;;;;;;;;;3.30;99.90;;;;;;5045108;28;19921;-70
2022/01/05 00:06:01;;;;;;;;;;;3.30;99.90;;;;;;5045247;28;20263;-72
2022/01/05 00:08:28;;;;;;;;;;;3.30;99.90;;;;;;5045234;28;19927;-70
2022/01/05 00:10:55;;;;;;;;;;;3.20;99.90;;;;;;5045249;28;20120;-70
2022/01/05 00:13:21;;;;;;;;;;;3.20;99.90;;;;;;5045091;28;19956;-69
2022/01/05 00:15:48;;;;;;;;;;;3.20;99.90;;;;;;5045065;28;20148;-71
2022/01/05 00:18:16;;;;;;;;;;;3.30;99.90;;;;;;5045198;28;19921;-70
2022/01/05 00:20:43;;;;;;;;;;;3.30;99.90;;;;;;5044827;28;19925;-70
2022/01/05 00:23:11;;;;;;;;;;;3.30;99.90;;;;;;5029651;28;19921;-70
2022/01/05 00:25:37;;;;;;;;;;;3.30;99.90;;;;;;5044823;28;19943;-69
2022/01/05 00:28:04;;;;;;;;;;;3.30;99.90;;;;;;5045173;28;19928;-71
2022/01/05 00:30:31;;;;;;;;;;;3.30;99.90;;;;;;5045126;28;19988;-70
2022/01/05 00:32:57;;;;;;;;;;;3.30;99.90;;;;;;5044944;28;19989;-70
2022/01/05 00:35:25;;;;;;;;;;;3.30;99.90;;;;;;5044541;28;19952;-70
2022/01/05 00:37:52;;;;;;;;;;;3.30;99.90;;;;;;5044954;28;19928;-70
2022/01/05 00:40:18;;;;;;;;;;;3.40;99.90;;;;;;5038726;28;19941;-71
2022/01/05 00:42:45;;;;;;;;;;;3.40;99.90;;;;;;5026425;28;20093;-70
2022/01/05 00:45:12;;;;;;;;;;;3.40;99.90;;;;;;5024649;28;19928;-70
2022/01/05 00:47:38;;;;;;;;;;;3.40;99.90;;;;;;5024951;28;19925;-70
2022/01/05 00:50:05;;;;;;;;;;;3.40;99.90;;;;;;5024963;28;19922;-70
2022/01/05 00:52:33;;;;;;;;;;;3.40;99.90;;;;;;5024570;28;19944;-70
2022/01/05 00:55:00;;;;;;;;;;;3.40;99.90;;;;;;5024358;28;19928;-70
2022/01/05 00:57:26;;;;;;;;;;;3.40;99.90;;;;;;5024813;28;19921;-70
2022/01/05 00:59:53;;;;;;;;;;;3.40;99.90;;;;;;5024625;28;19928;-70
2022/01/05 01:02:20;;;;;;;;;;;3.40;99.90;;;;;;5024453;28;19928;-70
2022/01/05 01:04:46;;;;;;;;;;;3.40;99.90;;;;;;5024342;28;19988;-69
2022/01/05 01:07:13;;;;;;;;;;;3.40;99.90;;;;;;5024557;28;19922;-70
2022/01/05 01:09:41;;;;;;;;;;;3.40;99.90;;;;;;5024344;28;20112;-70
2022/01/05 01:12:09;;;;;;;;;;;3.40;99.90;;;;;;5024012;28;19921;-70
2022/01/05 01:14:35;;;;;;;;;;;3.40;99.90;;;;;;5040540;28;19991;-69
2022/01/05 01:17:02;;;;;;;;;;;3.40;99.90;;;;;;5039993;28;19921;-70
2022/01/05 01:19:28;;;;;;;;;;;3.40;99.90;;;;;;5024675;28;19922;-70
2022/01/05 01:21:55;;;;;;;;;;;3.40;99.90;;;;;;5034229;28;19921;-70
2022/01/05 01:24:22;;;;;;;;;;;3.40;99.90;;;;;;5043699;28;19921;-71
2022/01/05 01:26:50;;;;;;;;;;;3.40;99.90;;;;;;5044274;28;19921;-69
2022/01/05 01:29:16;;;;;;;;;;;3.40;99.90;;;;;;5043887;28;20204;-70
2022/01/05 01:31:43;;;;;;;;;;;3.50;99.90;;;;;;5044103;28;19921;-70
2022/01/05 01:34:10;;;;;;;;;;;3.50;99.90;;;;;;5043445;28;19928;-69
2022/01/05 01:36:36;;;;;;;;;;;3.50;99.90;;;;;;5044111;28;19921;-70
2022/01/05 01:39:04;;;;;;;;;;;3.50;99.90;;;;;;5043603;28;19921;-70
2022/01/05 01:41:31;;;;;;;;;;;3.50;99.90;;;;;;5043988;28;20005;-70
2022/01/05 01:43:59;;;;;;;;;;;3.50;99.90;;;;;;5035495;28;20121;-70
2022/01/05 01:46:25;;;;;;;;;;;3.60;99.90;;;;;;5043991;28;20132;-70
2022/01/05 01:48:52;;;;;;;;;;;3.60;99.90;;;;;;5043966;28;19921;-70
2022/01/05 01:51:19;;;;;;;;;;;3.70;99.90;;;;;;5043804;28;19928;-70
2022/01/05 01:53:45;;;;;;;;;;;3.70;99.90;;;;;;5033474;28;20271;-70
2022/01/05 01:56:12;;;;;;;;;;;3.70;99.90;;;;;;5024073;28;20123;-70
2022/01/05 01:58:39;;;;;;;;;;;3.70;99.90;;;;;;5023981;28;19921;-70
2022/01/05 02:01:07;;;;;;;;;;;3.70;99.90;;;;;;5023781;28;20213;-70
2022/01/05 02:03:33;;;;;;;;;;;3.70;99.90;;;;;;5023284;28;19944;-70
2022/01/05 02:06:00;;;;;;;;;;;3.70;99.90;;;;;;5023754;28;20213;-70
2022/01/05 02:08:26;;;;;;;;;;;3.70;99.90;;;;;;5024002;28;19922;-70
2022/01/05 02:10:53;;;;;;;;;;;3.70;99.90;;;;;;5025492;28;19921;-70
2022/01/05 02:13:20;;;;;;;;;;;3.80;99.90;;;;;;5024146;28;19928;-70
2022/01/05 02:15:47;;;;;;;;;;;3.80;99.90;;;;;;5023294;28;19921;-70
2022/01/05 02:18:58;;;;;;;;;;;3.80;99.90;;;;;;5037857;28;19928;-70
2022/01/05 02:21:11;;;;;;;;;;;3.90;99.90;;;;;;5039323;28;20121;-70
2022/01/05 02:23:38;;;;;;;;;;;3.80;99.90;;;;;;5026171;28;19922;-70
2022/01/05 02:26:05;;;;;;;;;;;3.90;99.90;;;;;;5027418;28;19928;-70
2022/01/05 02:28:32;;;;;;;;;;;3.90;99.90;;;;;;5027497;28;20115;-70
2022/01/05 02:30:59;;;;;;;;;;;3.90;99.90;;;;;;5027475;28;19921;-70
2022/01/05 02:33:26;;;;;;;;;;;3.90;99.90;;;;;;5029189;28;19928;-69
2022/01/05 02:35:52;;;;;;;;;;;3.90;99.90;;;;;;5047224;28;20131;-70
2022/01/05 02:38:21;;;;;;;;;;;3.90;99.90;;;;;;5047184;28;19921;-69
2022/01/05 02:40:48;;;;;;;;;;;4.00;99.90;;;;;;5046547;28;20212;-71
2022/01/05 02:43:14;;;;;;;;;;;4.00;99.90;;;;;;5046605;28;19921;-70
2022/01/05 02:45:41;;;;;;;;;;;4.00;99.90;;;;;;5046702;28;19921;-70
2022/01/05 02:48:08;;;;;;;;;;;4.00;99.90;;;;;;5046743;28;19920;-71
2022/01/05 02:50:35;;;;;;;;;;;4.00;99.90;;;;;;5046937;28;19928;-70
2022/01/05 02:53:01;;;;;;;;;;;4.10;99.90;;;;;;5046407;28;19921;-70
2022/01/05 02:55:29;;;;;;;;;;;4.10;99.90;;;;;;5046407;28;19927;-70
2022/01/05 02:57:56;;;;;;;;;;;4.10;99.90;;;;;;5046761;28;20347;-70
2022/01/05 03:00:22;;;;;;;;;;;4.10;99.90;;;;;;5026579;28;19928;-70
2022/01/05 03:02:49;;;;;;;;;;;4.20;99.90;;;;;;5026472;28;20143;-71
2022/01/05 03:05:16;;;;;;;;;;;4.10;99.90;;;;;;5025949;28;20205;-70
2022/01/05 03:07:42;;;;;;;;;;;4.20;99.90;;;;;;5026710;28;20228;-70
2022/01/05 03:10:10;;;;;;;;;;;4.10;99.90;;;;;;5026824;28;19943;-70
2022/01/05 03:12:39;;;;;;;;;;;4.20;99.90;;;;;;5026706;28;19921;-70
2022/01/05 03:15:06;;;;;;;;;;;4.20;99.90;;;;;;5025983;28;19921;-72
2022/01/05 03:17:32;;;;;;;;;;;4.20;99.90;;;;;;5034633;28;19935;-72
2022/01/05 03:19:59;;;;;;;;;;;4.20;99.90;;;;;;5045754;28;19920;-71
2022/01/05 03:22:26;;;;;;;;;;;4.20;99.90;;;;;;5031111;28;19921;-72
2022/01/05 03:24:52;;;;;;;;;;;4.20;99.90;;;;;;5024607;28;19921;-72
2022/01/05 03:27:19;;;;;;;;;;;4.20;99.90;;;;;;5025721;28;19928;-69
2022/01/05 03:29:47;;;;;;;;;;;4.20;99.90;;;;;;5044802;28;19921;-72
2022/01/05 03:32:13;;;;;;;;;;;4.30;99.90;;;;;;5045767;28;19925;-72
2022/01/05 03:34:41;;;;;;;;;;;4.30;99.90;;;;;;5044821;28;19924;-72
2022/01/05 03:37:07;;;;;;;;;;;4.30;99.90;;;;;;5044832;28;19921;-72
2022/01/05 03:39:34;;;;;;;;;;;4.30;99.90;;;;;;5045466;28;19921;-72
2022/01/05 03:42:01;;;;;;;;;;;4.30;99.90;;;;;;5045233;28;20125;-72
2022/01/05 03:44:27;;;;;;;;;;;4.30;99.90;;;;;;5044995;28;20475;-72
2022/01/05 03:46:56;;;;;;;;;;;4.30;99.90;;;;;;5045460;28;19936;-72
2022/01/05 03:49:23;;;;;;;;;;;4.40;99.90;;;;;;5045455;28;19955;-74
2022/01/05 03:51:49;;;;;;;;;;;4.40;99.90;;;;;;5044094;28;19921;-69
2022/01/05 03:54:16;;;;;;;;;;;4.40;99.90;;;;;;5044940;28;20120;-72
2022/01/05 03:56:42;;;;;;;;;;;4.40;99.90;;;;;;5044435;28;19927;-72
2022/01/05 03:59:09;;;;;;;;;;;4.40;99.90;;;;;;5045219;28;19925;-72
2022/01/05 04:01:36;;;;;;;;;;;4.40;99.90;;;;;;5045010;28;19921;-72
2022/01/05 04:04:04;;;;;;;;;;;4.40;99.90;;;;;;5044841;28;19927;-72
2022/01/05 04:06:30;;;;;;;;;;;4.50;99.90;;;;;;5044169;28;20230;-72
2022/01/05 04:08:57;;;;;;;;;;;4.50;99.90;;;;;;5043934;28;19921;-71
2022/01/05 04:11:24;;;;;;;;;;;4.50;99.90;;;;;;5043917;28;20205;-72
2022/01/05 04:13:50;;;;;;;;;;;4.50;99.90;;;;;;5044469;28;19921;-70
2022/01/05 04:16:17;;;;;;;;;;;4.50;99.90;;;;;;5044975;28;19921;-72
2022/01/05 04:18:43;;;;;;;;;;;4.50;99.90;;;;;;5026411;28;19921;-72
2022/01/05 04:21:11;;;;;;;;;;;4.50;99.90;;;;;;5028754;28;19921;-72
2022/01/05 04:23:38;;;;;;;;;;;4.50;99.90;;;;;;5044322;28;20115;-72
2022/01/05 04:26:04;;;;;;;;;;;4.50;99.90;;;;;;5043918;28;20397;-72
2022/01/05 04:28:31;;;;;;;;;;;4.50;99.90;;;;;;5044259;28;19921;-72
2022/01/05 04:30:57;;;;;;;;;;;4.50;99.90;;;;;;5044357;28;19921;-72
2022/01/05 04:33:24;;;;;;;;;;;4.60;99.90;;;;;;5044480;28;20159;-72
2022/01/05 04:35:51;;;;;;;;;;;4.60;99.90;;;;;;5043806;28;19921;-71
2022/01/05 04:38:19;;;;;;;;;;;4.60;99.90;;;;;;5043329;28;20243;-72
2022/01/05 04:40:45;;;;;;;;;;;4.60;99.90;;;;;;5043358;28;20208;-72
2022/01/05 04:43:12;;;;;;;;;;;4.60;99.90;;;;;;5044153;28;20135;-72
2022/01/05 04:45:38;;;;;;;;;;;4.60;99.90;;;;;;5043543;28;19921;-72
2022/01/05 04:48:05;;;;;;;;;;;4.60;99.90;;;;;;5044017;28;19921;-70
2022/01/05 04:50:32;;;;;;;;;;;4.60;99.90;;;;;;5044105;28;20000;-72
2022/01/05 04:52:59;;;;;;;;;;;4.60;99.90;;;;;;5043272;28;20097;-72
2022/01/05 04:55:27;;;;;;;;;;;4.60;99.90;;;;;;5043673;28;20004;-72
2022/01/05 04:57:53;;;;;;;;;;;4.60;99.90;;;;;;5043855;28;19927;-70
2022/01/05 05:00:20;;;;;;;;;;;4.60;99.90;;;;;;5043774;28;19921;-72
2022/01/05 05:02:48;;;;;;;;;;;4.70;99.90;;;;;;5044175;28;19928;-72
2022/01/05 05:05:15;;;;;;;;;;;4.70;99.90;;;;;;5043595;28;19989;-72
2022/01/05 05:07:41;;;;;;;;;;;4.60;99.90;;;;;;5043061;28;19921;-70
2022/01/05 05:10:08;;;;;;;;;;;4.60;99.90;;;;;;5042608;28;19921;-72
2022/01/05 05:12:36;;;;;;;;;;;4.60;99.90;;;;;;5042523;28;19931;-72
2022/01/05 05:15:03;;;;;;;;;;;4.60;99.90;;;;;;5042816;28;19921;-72
2022/01/05 05:17:29;;;;;;;;;;;4.60;99.90;;;;;;5043564;28;20132;-72
2022/01/05 05:19:56;;;;;;;;;;;4.60;99.90;;;;;;5044047;28;20112;-70
2022/01/05 05:22:24;;;;;;;;;;;4.70;99.90;;;;;;5029604;28;20112;-71
2022/01/05 05:24:50;;;;;;;;;;;4.70;99.90;;;;;;5023471;28;19926;-72
2022/01/05 05:27:17;;;;;;;;;;;4.60;99.90;;;;;;5024086;28;19928;-72
2022/01/05 05:29:45;;;;;;;;;;;4.70;99.90;;;;;;5024127;28;19928;-72
2022/01/05 05:32:11;;;;;;;;;;;4.60;99.90;;;;;;5023609;28;20205;-70
2022/01/05 05:34:38;;;;;;;;;;;4.60;99.90;;;;;;5023626;28;20140;-72
2022/01/05 05:37:05;;;;;;;;;;;4.60;99.90;;;;;;5023881;28;19928;-72
2022/01/05 05:39:33;;;;;;;;;;;4.60;99.90;;;;;;5023494;28;20231;-71
2022/01/05 05:41:59;;;;;;;;;;;4.60;99.90;;;;;;5023042;28;19937;-72
2022/01/05 05:44:26;;;;;;;;;;;4.50;99.90;;;;;;5022853;28;19921;-71
2022/01/05 05:46:54;;;;;;;;;;;4.50;99.90;;;;;;5023473;28;19927;-71
2022/01/05 05:49:20;;;;;;;;;;;4.50;99.90;;;;;;5023862;28;20169;-72
2022/01/05 05:51:47;;;;;;;;;;;4.50;99.90;;;;;;5023613;28;19921;-71
2022/01/05 05:54:14;;;;;;;;;;;4.50;99.90;;;;;;5023439;28;19932;-71
2022/01/05 05:56:40;;;;;;;;;;;4.40;99.90;;;;;;5024986;28;19929;-72
2022/01/05 05:59:07;;;;;;;;;;;4.40;99.90;;;;;;5027457;28;19921;-72
2022/01/05 06:01:33;;;;;;;;;;;4.40;99.90;;;;;;5027436;28;19921;-70
2022/01/05 06:04:01;;;;;;;;;;;4.40;99.90;;;;;;5027468;28;19921;-70
2022/01/05 06:06:28;;;;;;;;;;;4.40;99.90;;;;;;5027765;28;19927;-76
2022/01/05 06:08:55;;;;;;;;;;;4.40;99.90;;;;;;5027315;28;19922;-71
2022/01/05 06:11:22;;;;;;;;;;;4.40;99.90;;;;;;5027468;28;19984;-68
2022/01/05 06:13:50;;;;;;;;;;;4.00;99.90;;;;;;5027075;28;19927;-69
2022/01/05 06:16:16;;;;;;;;;;;3.60;99.90;;;;;;5027181;28;20260;-69
2022/01/05 06:18:43;;;;;;;;;;;3.40;99.90;;;;;;5045194;28;19928;-69
2022/01/05 06:21:11;;;;;;;;;;;3.20;99.90;;;;;;5047719;28;19921;-69
2022/01/05 06:23:39;;;;;;;;;;;3.00;99.90;;;;;;5047132;28;20220;-71
2022/01/05 06:26:06;;;;;;;;;;;2.80;99.90;;;;;;5046963;28;19921;-70
2022/01/05 06:28:33;;;;;;;;;;;2.80;99.90;;;;;;5047032;28;19921;-69
2022/01/05 06:30:59;;;;;;;;;;;2.60;99.90;;;;;;5046510;28;19921;-70
2022/01/05 06:33:26;;;;;;;;;;;2.60;99.90;;;;;;5046959;28;19921;-69
2022/01/05 06:35:52;;;;;;;;;;;2.50;99.90;;;;;;5046290;28;20094;-69
2022/01/05 06:38:20;;;;;;;;;;;2.40;99.90;;;;;;5046727;28;19921;-69
2022/01/05 06:40:47;;;;;;;;;;;2.40;99.90;;;;;;5046303;28;20213;-69
2022/01/05 06:43:14;;;;;;;;;;;2.50;99.90;;;;;;5046750;28;19927;-69
2022/01/05 06:45:41;;;;;;;;;;;2.40;99.90;;;;;;5046470;28;19921;-69
2022/01/05 06:48:07;;;;;;;;;;;2.50;99.90;;;;;;5046759;28;19921;-69
2022/01/05 06:50:34;;;;;;;;;;;2.40;99.90;;;;;;5046727;28;19921;-69
2022/01/05 06:53:01;;;;;;;;;;;2.40;99.90;;;;;;5046231;28;19927;-69
2022/01/05 06:55:29;;;;;;;;;;;2.30;99.90;;;;;;5046004;28;19928;-69
2022/01/05 06:57:56;;;;;;;;;;;2.30;99.90;;;;;;5046558;28;19929;-69
2022/01/05 07:00:23;;;;;;;;;;;2.30;99.90;;;;;;5046125;28;19921;-69
2022/01/05 07:02:50;;;;;;;;;;;2.20;99.90;;;;;;5046290;28;19921;-69
2022/01/05 07:05:17;;;;;;;;;;;2.20;99.90;;;;;;5046069;28;19921;-69
2022/01/05 07:07:44;;;;;;;;;;;2.10;99.90;;;;;;5038388;28;19922;-68
2022/01/05 07:10:11;;;;;;;;;;;2.20;99.90;;;;;;5044404;28;19921;-69
2022/01/05 07:12:39;;;;;;;;;;;2.20;99.90;;;;;;5045392;28;19984;-69
2022/01/05 07:15:06;;;;;;;;;;;2.20;99.90;;;;;;5044753;28;19925;-69
2022/01/05 07:17:33;;;;;;;;;;;2.20;99.90;;;;;;5045842;28;19928;-69
2022/01/05 07:19:59;;;;;;;;;;;2.20;99.90;;;;;;5046273;28;19943;-70
2022/01/05 07:22:26;;;;;;;;;;;2.20;99.90;;;;;;5030962;28;19929;-71
2022/01/05 07:24:53;;;;;;;;;;;2.20;99.90;;;;;;5043947;28;19927;-69
2022/01/05 07:27:19;;;;;;;;;;;2.20;99.90;;;;;;5045910;28;19921;-68
2022/01/05 07:29:47;;;;;;;;;;;2.20;99.90;;;;;;5045891;28;20116;-69
2022/01/05 07:32:14;;;;;;;;;;;2.10;99.90;;;;;;5045885;28;19928;-69
2022/01/05 07:34:40;;;;;;;;;;;2.10;99.90;;;;;;5042109;28;19929;-69
2022/01/05 07:37:08;;;;;;;;;;;2.10;99.90;;;;;;5025556;28;19921;-69
2022/01/05 07:39:35;;;;;;;;;;;2.10;99.90;;;;;;5025577;28;20252;-69
2022/01/05 07:42:01;;;;;;;;;;;2.00;99.90;;;;;;5025921;28;19921;-71
2022/01/05 07:44:28;;;;;;;;;;;2.10;99.90;;;;;;5040529;28;19928;-69
2022/01/05 07:46:56;;;;;;;;;;;2.10;99.90;;;;;;5045503;28;20116;-71
2022/01/05 07:49:22;;;;;;;;;;;2.10;99.90;;;;;;5045329;28;20208;-69
2022/01/05 07:51:49;;;;;;;;;;;2.10;99.90;;;;;;5045105;28;19921;-70
2022/01/05 07:54:16;;;;;;;;;;;2.10;99.90;;;;;;5045390;28;19928;-69
2022/01/05 07:56:42;;;;;;;;;;;2.10;99.90;;;;;;5045619;28;19991;-71
2022/01/05 07:59:09;;;;;;;;;;;2.00;99.90;;;;;;5045520;28;19921;-70
2022/01/05 08:01:35;;;;;;;;;;;2.00;99.90;;;;;;5045393;28;19952;-69
2022/01/05 08:04:04;;;;;;;;;;;1.90;99.90;;;;;;5044651;28;20200;-70
2022/01/05 08:06:30;;;;;;;;;;;1.90;99.90;;;;;;5045429;28;19928;-70
2022/01/05 08:08:57;;;;;;;;;;;1.90;99.90;;;;;;5045115;28;19948;-69
2022/01/05 08:11:23;;;;;;;;;;;1.90;99.90;;;;;;5045337;28;19921;-69
2022/01/05 08:13:52;;;;;;;;;;;1.80;99.90;;;;;;5044817;28;20086;-70
2022/01/05 08:16:19;;;;;;;;;;;1.80;99.90;;;;;;5044813;28;19925;-70
2022/01/05 08:18:45;;;;;;;;;;;1.80;99.90;;;;;;5045106;28;19925;-69
2022/01/05 08:21:13;;;;;;;;;;;1.90;99.90;;;;;;5044481;28;19928;-69
2022/01/05 08:23:40;;;;;;;;;;;1.80;99.90;;;;;;5044703;28;20108;-70
2022/01/05 08:26:06;;;;;;;;;;;1.90;99.90;;;;;;5029697;28;19928;-70
2022/01/05 08:28:33;;;;;;;;;;;1.90;99.90;;;;;;5024992;28;19929;-69
2022/01/05 08:30:59;;;;;;;;;;;2.00;99.90;;;;;;5029130;28;20197;-71
2022/01/05 08:33:26;;;;;;;;;;;2.00;99.90;;;;;;5024539;28;20140;-70
2022/01/05 08:35:53;;;;;;;;;;;2.00;99.90;;;;;;5024055;28;19968;-71
2022/01/05 08:38:21;;;;;;;;;;;2.00;99.90;;;;;;5024682;28;20400;-71
2022/01/05 08:40:49;;;;;;;;;;;2.00;99.90;;;;;;5024550;28;20217;-71
2022/01/05 08:43:16;;;;;;;;;;;2.00;99.90;;;;;;5024316;28;19921;-71
2022/01/05 08:45:43;;;;;;;;;;;2.00;99.90;;;;;;5024171;28;19928;-71
2022/01/05 08:48:10;;;;;;;;;;;2.00;99.90;;;;;;5024310;28;20212;-71
2022/01/05 08:50:37;;;;;;;;;;;1.90;99.90;;;;;;5024495;28;19922;-71
2022/01/05 08:53:04;;;;;;;;;;;1.90;99.90;;;;;;5028108;28;19925;-70
2022/01/05 08:55:35;;;;;;;;;;;1.90;99.90;;;;;;5026263;28;20217;-70
2022/01/05 08:58:02;;;;;;;;;;;1.80;99.90;;;;;;5024226;28;19921;-70
2022/01/05 09:00:28;;;;;;;;;;;1.80;99.90;;;;;;5038700;28;19921;-70
2022/01/05 09:02:55;;;;;;;;;;;1.90;99.90;;;;;;5042954;28;19921;-69
2022/01/05 09:05:23;;;;;;;;;;;1.90;99.90;;;;;;5040213;28;20344;-69
2022/01/05 09:07:49;;;;;;;;;;;1.80;99.90;;;;;;5027502;28;20116;-69
2022/01/05 09:10:16;;;;;;;;;;;1.80;99.90;;;;;;5038870;28;20287;-70
2022/01/05 09:12:44;;;;;;;;;;;1.80;99.90;;;;;;5042666;28;19921;-69
2022/01/05 09:15:11;;;;;;;;;;;1.80;99.90;;;;;;5038979;28;19956;-69
2022/01/05 09:17:38;;;;;;;;;;;1.70;99.90;;;;;;5043894;28;19929;-69
2022/01/05 09:20:05;;;;;;;;;;;1.70;99.90;;;;;;5043865;28;19921;-70
2022/01/05 09:22:31;;;;;;;;;;;1.70;99.90;;;;;;5032997;28;19929;-70
2022/01/05 09:24:58;;;;;;;;;;;1.70;99.90;;;;;;5023151;28;19921;-70
2022/01/05 09:27:25;;;;;;;;;;;1.70;99.90;;;;;;5025152;28;19922;-69
2022/01/05 09:29:52;;;;;;;;;;;1.70;99.90;;;;;;5043776;28;19927;-70
2022/01/05 09:32:19;;;;;;;;;;;1.70;99.90;;;;;;5043045;28;20116;-70
2022/01/05 09:34:46;;;;;;;;;;;1.80;99.90;;;;;;5043152;28;19929;-70
2022/01/05 09:37:19;;;;;;;;;;;1.80;99.90;;;;;;5033096;28;19928;-70
2022/01/05 09:42:31;;;;;;;;;;;1.80;99.90;;;;;;5043261;28;19925;-70
2022/01/05 09:44:59;;;;;;;;;;;1.80;99.90;;;;;;5042785;28;19921;-69
2022/01/05 09:47:32;;;;;;;;;;;1.80;99.90;;;;;;5038961;28;20239;-69
2022/01/05 09:49:59;;;;;;;;;;;1.80;99.90;;;;;;5043391;28;19925;-70
2022/01/05 09:52:26;;;;;;;;;;;1.90;99.90;;;;;;5043037;28;20136;-69
2022/01/05 09:54:53;;;;;;;;;;;1.90;99.90;;;;;;5042369;28;19932;-70
2022/01/05 09:57:21;;;;;;;;;;;1.90;99.90;;;;;;5040988;28;19925;-70
2022/01/05 09:59:48;;;;;;;;;;;1.90;99.90;;;;;;5043334;28;19922;-70
2022/01/05 10:02:17;;;;;;;;;;;1.90;99.90;;;;;;5043095;28;19928;-69
2022/01/05 10:04:44;;;;;;;;;;;1.80;99.90;;;;;;5043344;28;20144;-69
2022/01/05 10:07:11;;;;;;;;;;;1.70;99.90;;;;;;5043302;28;19921;-69
2022/01/05 10:09:38;;;;;;;;;;;1.60;99.90;;;;;;5043334;28;19928;-69
2022/01/05 10:12:06;;;;;;;;;;;1.50;99.90;;;;;;5042884;28;19922;-70
2022/01/05 10:14:33;;;;;;;;;;;1.50;99.90;;;;;;5043036;28;19929;-70
2022/01/05 10:17:04;;;;;;;;;;;1.60;99.90;;;;;;5042610;28;19921;-69
2022/01/05 10:19:32;;;;;;;;;;;1.60;99.90;;;;;;5042869;28;20268;-68
2022/01/05 10:21:59;;;;;;;;;;;1.60;99.90;;;;;;5041505;28;19921;-67
2022/01/05 10:24:40;;;;;;;;;;;1.50;99.90;;;;;;5042124;28;19921;-67
2022/01/05 10:27:07;;;;;;;;;;;1.50;99.90;;;;;;5043519;28;19921;-72
2022/01/05 10:29:34;;;;;;;;;;;1.60;99.90;;;;;;5043444;28;19921;-71
2022/01/05 10:32:01;;;;;;;;;;;1.80;99.90;;;;;;5042214;28;19925;-71
2022/01/05 10:34:31;;;;;;;;;;;1.90;99.90;;;;;;5022814;28;19985;-71
2022/01/05 10:37:00;;;;;;;;;;;2.10;99.90;;;;;;5023310;28;19961;-71
2022/01/05 10:39:28;;;;;;;;;;;2.10;99.90;;;;;;5023594;28;19929;-70
2022/01/05 10:41:55;;;;;;;;;;;2.00;99.90;;;;;;5023418;28;19921;-70
2022/01/05 10:44:22;;;;;;;;;;;2.00;99.90;;;;;;5024376;28;20218;-70
2022/01/05 10:46:50;;;;;;;;;;;2.00;99.90;;;;;;5026925;28;19921;-70
2022/01/05 10:49:30;;;;;;;;;;;1.90;99.90;;;;;;5027837;28;19989;-70
2022/01/05 10:51:57;;;;;;;;;;;1.80;99.90;;;;;;5046566;28;19921;-70
2022/01/05 10:54:27;;;;;;;;;;;1.80;99.90;;;;;;5046125;28;19927;-70
2022/01/05 10:56:55;;;;;;;;;;;1.90;99.90;;;;;;5046744;28;19921;-70
2022/01/05 10:59:34;;;;;;;;;;;2.00;99.90;;;;;;5046335;28;19921;-70
2022/01/05 11:02:19;;;;;;;;;;;2.20;99.90;;;;;;5045537;28;19922;-70
2022/01/05 11:04:46;;;;;;;;;;;2.40;99.90;;;;;;5045979;28;19927;-70
2022/01/05 11:07:19;;;;;;;;;;;2.30;99.90;;;;;;5045967;28;19921;-67
2022/01/05 11:09:52;;;;;;;;;;;2.30;99.90;;;;;;5045944;28;19928;-66
2022/01/05 11:12:20;;;;;;;;;;;2.10;99.90;;;;;;5045819;28;19929;-67
2022/01/05 11:14:46;;;;;;;;;;;1.90;99.90;;;;;;5045794;28;19988;-67
2022/01/05 11:17:16;;;;;;;;;;;1.80;99.90;;;;;;5045954;28;20120;-67
2022/01/05 11:19:42;;;;;;;;;;;1.80;99.90;;;;;;5045807;28;20036;-67
2022/01/05 11:22:14;;;;;;;;;;;1.90;99.90;;;;;;5045486;28;19921;-67
2022/01/05 11:24:42;;;;;;;;;;;2.10;99.90;;;;;;5034273;28;19922;-67
2022/01/05 11:27:10;;;;;;;;;;;2.30;99.90;;;;;;5031643;28;19922;-67
2022/01/05 11:29:38;;;;;;;;;;;2.20;99.90;;;;;;5045803;28;20148;-67
2022/01/05 11:32:14;;;;;;;;;;;2.30;99.90;;;;;;5044891;28;20439;-67
2022/01/05 11:34:42;;;;;;;;;;;2.40;99.90;;;;;;5045475;28;19921;-66
2022/01/05 11:37:09;;;;;;;;;;;2.40;99.90;;;;;;5045480;28;19956;-66
2022/01/05 11:39:44;;;;;;;;;;;2.50;99.90;;;;;;5045551;28;19921;-67
2022/01/05 11:42:13;;;;;;;;;;;2.50;99.90;;;;;;5043593;28;20319;-67
2022/01/05 11:44:48;;;;;;;;;;;2.40;99.90;;;;;;5043207;28;19921;-69
2022/01/05 11:47:19;;;;;;;;;;;2.30;99.90;;;;;;5025381;28;20246;-67
2022/01/05 11:49:45;;;;;;;;;;;2.20;99.90;;;;;;5032588;28;19927;-67
2022/01/05 11:52:12;;;;;;;;;;;2.20;99.90;;;;;;5044475;28;20304;-67
2022/01/05 11:54:38;;;;;;;;;;;2.20;99.90;;;;;;5044913;28;19993;-67
2022/01/05 11:57:06;;;;;;;;;;;2.20;99.90;;;;;;5045123;28;19921;-67
2022/01/05 11:59:35;;;;;;;;;;;2.20;99.90;;;;;;5044014;28;20144;-67
2022/01/05 12:02:05;;;;;;;;;;;2.30;99.90;;;;;;5042306;28;19928;-67
2022/01/05 12:04:32;;;;;;;;;;;2.50;99.90;;;;;;5044095;28;19921;-67
2022/01/05 12:07:03;;;;;;;;;;;2.40;99.90;;;;;;5045327;28;19928;-67
2022/01/05 12:09:31;;;;;;;;;;;2.40;99.90;;;;;;5045197;28;19921;-67
2022/01/05 12:12:00;;;;;;;;;;;2.50;99.90;;;;;;5048066;28;19927;-67
2022/01/05 12:14:45;;;;;;;;;;;2.40;99.90;;;;;;5044471;28;19921;-67
2022/01/05 12:17:13;;;;;;;;;;;2.40;99.90;;;;;;5045147;28;19932;-67
2022/01/05 12:19:54;;;;;;;;;;;2.50;99.90;;;;;;5044859;28;19992;-67
2022/01/05 12:22:21;;;;;;;;;;;2.60;99.90;;;;;;5032241;28;19929;-67
2022/01/05 12:25:09;;;;;;;;;;;2.70;99.90;;;;;;5035614;28;19921;-67
2022/01/05 12:27:37;;;;;;;;;;;2.50;99.90;;;;;;5037718;28;19984;-67
2022/01/05 12:30:31;;;;;;;;;;;2.20;99.90;;;;;;5044613;28;19927;-67
2022/01/05 12:33:03;;;;;;;;;;;2.10;99.90;;;;;;5044320;28;20257;-67
2022/01/05 12:35:42;;;;;;;;;;;1.80;99.90;;;;;;5044435;28;19921;-67
2022/01/05 12:38:09;;;;;;;;;;;1.70;99.90;;;;;;5044427;28;20227;-67
2022/01/05 12:40:36;;;;;;;;;;;1.60;99.90;;;;;;5044735;28;19992;-68
2022/01/05 12:43:21;;;;;;;;;;;1.60;99.90;;;;;;5044263;28;19951;-67
2022/01/05 12:45:49;;;;;;;;;;;1.60;99.90;;;;;;5024624;28;19921;-67
2022/01/05 12:48:30;;;;;;;;;;;1.60;99.90;;;;;;5024685;28;19921;-67
2022/01/05 12:51:22;;;;;;;;;;;1.60;99.90;;;;;;5039829;28;19921;-67
2022/01/05 12:53:52;;;;;;;;;;;1.80;99.90;;;;;;5043468;28;20224;-68
2022/01/05 12:56:19;;;;;;;;;;;1.90;99.90;;;;;;5043916;28;19925;-67
2022/01/05 12:58:47;;;;;;;;;;;1.90;99.90;;;;;;5043892;28;19921;-67
2022/01/05 13:01:14;;;;;;;;;;;1.90;99.90;;;;;;5043971;28;19960;-67
2022/01/05 13:03:41;;;;;;;;;;;1.90;99.90;;;;;;5043660;28;20179;-67
2022/01/05 13:06:15;;;;;;;;;;;1.90;99.90;;;;;;5043147;28;19921;-68
2022/01/05 13:08:46;;;;;;;;;;;1.80;99.90;;;;;;5044191;28;19927;-69
2022/01/05 13:11:13;;;;;;;;;;;1.80;99.90;;;;;;5044008;28;19921;-69
2022/01/05 13:13:42;;;;;;;;;;;1.80;99.90;;;;;;5043505;28;19921;-68
2022/01/05 13:16:09;;;;;;;;;;;1.70;99.90;;;;;;5043916;28;19992;-67
2022/01/05 13:18:36;;;;;;;;;;;1.70;99.90;;;;;;5043816;28;20153;-72
2022/01/05 13:21:02;;;;;;;;;;;1.80;99.90;;;;;;5043882;28;19929;-72
2022/01/05 13:23:30;;;;;;;;;;;1.70;99.90;;;;;;5042474;28;19921;-72
2022/01/05 13:25:57;;;;;;;;;;;1.70;99.90;;;;;;5043746;28;19984;-72
2022/01/05 13:28:25;;;;;;;;;;;1.70;99.90;;;;;;5043276;28;20280;-72
2022/01/05 13:30:52;;;;;;;;;;;1.60;99.90;;;;;;5044009;28;19944;-72
2022/01/05 13:33:19;;;;;;;;;;;1.60;99.90;;;;;;5042957;28;19928;-73
2022/01/05 13:35:45;;;;;;;;;;;1.60;99.90;;;;;;5042754;28;19943;-73
2022/01/05 13:38:14;;;;;;;;;;;1.60;99.90;;;;;;5043094;28;19929;-72
2022/01/05 13:40:44;;;;;;;;;;;1.60;99.90;;;;;;5043295;28;19928;-72
2022/01/05 13:43:12;;;;;;;;;;;1.70;99.90;;;;;;5043112;28;19921;-72
2022/01/05 13:45:40;;;;;;;;;;;1.60;99.90;;;;;;5042997;28;19936;-72
2022/01/05 13:48:07;;;;;;;;;;;1.60;99.90;;;;;;5043452;28;20209;-72
2022/01/05 13:50:35;;;;;;;;;;;1.70;99.90;;;;;;5043776;28;19921;-73
2022/01/05 13:53:04;;;;;;;;;;;1.60;99.90;;;;;;5042347;28;19932;-73
2022/01/05 13:55:33;;;;;;;;;;;1.60;99.90;;;;;;5043153;28;19933;-73
2022/01/05 13:58:05;;;;;;;;;;;1.70;99.90;;;;;;5043480;28;19928;-73
2022/01/05 14:00:32;;;;;;;;;;;1.60;99.90;;;;;;5043635;28;19921;-73
2022/01/05 14:02:58;;;;;;;;;;;1.60;99.90;;;;;;5042520;28;19933;-73
2022/01/05 14:05:26;;;;;;;;;;;1.60;99.90;;;;;;5042891;28;20111;-73
2022/01/05 14:08:01;;;;;;;;;;;1.50;99.90;;;;;;5043640;28;20208;-73
2022/01/05 14:10:30;;;;;;;;;;;1.50;99.90;;;;;;5043824;28;19925;-73
2022/01/05 14:13:01;;;;;;;;;;;1.50;99.90;;;;;;5043293;28;20098;-73
2022/01/05 14:15:29;;;;;;;;;;;1.50;99.90;;;;;;5042076;28;20098;-72
2022/01/05 14:17:59;;;;;;;;;;;1.50;99.90;;;;;;5043510;28;19921;-73
2022/01/05 14:20:26;;;;;;;;;;;1.50;99.90;;;;;;5046669;28;20173;-71
2022/01/05 14:22:59;;;;;;;;;;;1.60;99.90;;;;;;5046055;28;19925;-71
2022/01/05 14:25:33;;;;;;;;;;;1.50;99.90;;;;;;5046735;28;19921;-71
2022/01/05 14:28:08;;;;;;;;;;;1.50;99.90;;;;;;5047392;28;19921;-72
2022/01/05 14:30:36;;;;;;;;;;;1.50;99.90;;;;;;5047019;28;20120;-71
2022/01/05 14:33:03;;;;;;;;;;;1.50;99.90;;;;;;5046260;28;19935;-71
2022/01/05 14:35:30;;;;;;;;;;;1.50;99.90;;;;;;5046491;28;19984;-72
2022/01/05 14:37:58;;;;;;;;;;;1.50;99.90;;;;;;5046951;28;19921;-73